Time;durP1;ratioP1;P1;durP2;ratioP2;P2;SDS_P1;SDS_P2;PMS_P1;PMS_P2;Temp;Humidity;BMP_temperature;BMP_pressure;BME280_temperature;BME280_humidity;BME280_pressure;Samples;Min_cycle;Max_cycle;Signal;HPM_P1;HPM_P2
2022/06/28 00:01:41;;;;;;;1.60;1.50;;;23.70;61.40;;;;;;5075681;28;20195;-71
2022/06/28 00:04:09;;;;;;;1.55;1.45;;;23.70;61.50;;;;;;5075590;28;20225;-71
2022/06/28 00:06:36;;;;;;;1.60;1.50;;;23.70;61.50;;;;;;5076909;28;20191;-71
2022/06/28 00:09:02;;;;;;;1.48;1.38;;;23.70;61.40;;;;;;5075337;28;20221;-71
2022/06/28 00:11:30;;;;;;;1.50;1.40;;;23.70;61.50;;;;;;5075388;28;20305;-71
2022/06/28 00:13:58;;;;;;;1.45;1.35;;;23.70;61.40;;;;;;5075321;28;20199;-71
2022/06/28 00:16:24;;;;;;;1.50;1.40;;;23.70;61.50;;;;;;5075389;28;20190;-71
2022/06/28 00:18:51;;;;;;;1.40;1.40;;;23.70;61.50;;;;;;5075089;28;20222;-71
2022/06/28 00:21:19;;;;;;;1.50;1.40;;;23.70;61.70;;;;;;5075272;28;20202;-71
2022/06/28 00:23:48;;;;;;;1.60;1.50;;;23.70;61.60;;;;;;5076727;28;20273;-71
2022/06/28 00:26:15;;;;;;;1.23;1.23;;;23.70;61.60;;;;;;5075105;28;20222;-70
2022/06/28 00:28:42;;;;;;;1.48;1.38;;;23.70;61.60;;;;;;5092259;28;20213;-71
2022/06/28 00:31:10;;;;;;;1.50;1.40;;;23.70;61.60;;;;;;5076600;28;20294;-71
2022/06/28 00:33:38;;;;;;;1.50;1.40;;;23.70;61.60;;;;;;5075092;28;20206;-71
2022/06/28 00:36:05;;;;;;;1.48;1.38;;;23.60;61.50;;;;;;5076434;28;20217;-71
2022/06/28 00:38:32;;;;;;;1.40;1.30;;;23.60;61.50;;;;;;5076307;28;20324;-71
2022/06/28 00:40:59;;;;;;;1.38;1.27;;;23.60;61.50;;;;;;5075033;28;20183;-71
2022/06/28 00:43:25;;;;;;;1.40;1.30;;;23.70;61.60;;;;;;5076072;28;20191;-71
2022/06/28 00:45:52;;;;;;;1.30;1.20;;;23.60;61.40;;;;;;5074883;28;20198;-71
2022/06/28 00:48:21;;;;;;;1.30;1.20;;;23.60;61.50;;;;;;5091708;28;20214;-71
2022/06/28 00:50:48;;;;;;;1.30;1.20;;;23.60;61.50;;;;;;5074596;28;20205;-71
2022/06/28 00:53:16;;;;;;;1.55;1.45;;;23.60;61.50;;;;;;5074677;28;20622;-70
2022/06/28 00:55:44;;;;;;;1.25;1.25;;;23.60;61.50;;;;;;5091525;28;20223;-71
2022/06/28 00:58:11;;;;;;;1.40;1.30;;;23.60;61.50;;;;;;5074779;28;20225;-71
2022/06/28 01:00:40;;;;;;;1.25;1.25;;;23.60;61.40;;;;;;5074549;28;20628;-71
2022/06/28 01:03:10;;;;;;;1.63;1.52;;;23.60;61.40;;;;;;5091898;28;20683;-71
2022/06/28 01:05:38;;;;;;;1.50;1.40;;;23.60;61.40;;;;;;5074518;28;20191;-71
2022/06/28 01:08:06;;;;;;;1.30;1.30;;;23.60;61.50;;;;;;5074162;28;20205;-71
2022/06/28 01:10:34;;;;;;;1.35;1.30;;;23.60;61.50;;;;;;5074725;28;20552;-71
2022/06/28 01:13:01;;;;;;;1.35;1.30;;;23.60;61.50;;;;;;5091230;28;20186;-71
2022/06/28 01:15:28;;;;;;;1.60;1.50;;;23.50;61.40;;;;;;5091155;28;20678;-71
2022/06/28 01:18:01;;;;;;;1.20;1.20;;;23.50;61.50;;;;;;5091081;28;20573;-71
2022/06/28 01:20:41;;;;;;;1.55;1.30;;;23.50;61.50;;;;;;5091053;28;20281;-71
2022/06/28 01:23:17;;;;;;;1.40;1.30;;;23.50;62.30;;;;;;5074304;28;20260;-72
2022/06/28 01:25:46;;;;;;;1.90;1.30;;;23.50;61.60;;;;;;5075904;28;20288;-71
2022/06/28 01:28:17;;;;;;;1.40;1.30;;;23.50;61.60;;;;;;5091051;28;20218;-71
2022/06/28 01:30:44;;;;;;;1.40;1.30;;;23.50;61.70;;;;;;5073854;28;20298;-71
2022/06/28 01:33:18;;;;;;;1.40;1.30;;;23.50;61.70;;;;;;5074075;28;20197;-71
2022/06/28 01:35:45;;;;;;;1.42;1.33;;;23.50;61.60;;;;;;5090763;28;20203;-71
2022/06/28 01:38:13;;;;;;;1.38;1.27;;;23.50;61.70;;;;;;5073918;28;20703;-71
2022/06/28 01:40:45;;;;;;;1.23;1.13;;;23.50;61.70;;;;;;5073754;28;20264;-71
2022/06/28 01:43:13;;;;;;;1.40;1.30;;;23.40;61.70;;;;;;5074124;28;20202;-71
2022/06/28 01:45:41;;;;;;;1.02;1.02;;;23.40;61.70;;;;;;5073950;28;20248;-71
2022/06/28 01:48:08;;;;;;;1.08;1.08;;;23.40;61.80;;;;;;5073864;28;20566;-71
2022/06/28 01:51:04;;;;;;;1.60;1.50;;;23.40;61.70;;;;;;5070691;28;20198;-71
2022/06/28 01:53:32;;;;;;;1.20;1.20;;;23.40;61.80;;;;;;5073507;28;20199;-71
2022/06/28 01:56:07;;;;;;;1.40;1.10;;;23.40;61.70;;;;;;5073514;28;20301;-71
2022/06/28 01:58:46;;;;;;;1.10;1.10;;;23.40;61.70;;;;;;5074051;28;20218;-71
2022/06/28 02:01:13;;;;;;;1.20;1.20;;;23.40;61.80;;;;;;5073293;28;20195;-71
2022/06/28 02:03:42;;;;;;;1.17;1.13;;;23.40;61.70;;;;;;5073603;28;20694;-71
2022/06/28 02:06:32;;;;;;;1.40;1.30;;;23.40;61.70;;;;;;5071665;28;20199;-71
2022/06/28 02:09:04;;;;;;;1.10;1.10;;;23.40;61.70;;;;;;5073565;28;20222;-71
2022/06/28 02:11:42;;;;;;;1.30;1.20;;;23.40;61.70;;;;;;5073684;28;20210;-71
2022/06/28 02:14:10;;;;;;;1.27;1.20;;;23.40;61.80;;;;;;5090137;28;20194;-71
2022/06/28 02:16:38;;;;;;;1.23;1.20;;;23.40;61.70;;;;;;5090033;28;20222;-70
2022/06/28 02:19:05;;;;;;;1.30;1.20;;;23.40;61.80;;;;;;5072866;28;20231;-71
2022/06/28 02:21:35;;;;;;;0.80;0.80;;;23.30;61.60;;;;;;5073109;28;20625;-71
2022/06/28 02:24:03;;;;;;;1.30;1.20;;;23.30;61.60;;;;;;5072916;28;20194;-71
2022/06/28 02:26:32;;;;;;;1.40;1.30;;;23.30;61.80;;;;;;5072922;28;20286;-71
2022/06/28 02:29:00;;;;;;;1.50;1.30;;;23.40;61.80;;;;;;5072793;28;20348;-71
2022/06/28 02:31:28;;;;;;;1.10;1.10;;;23.30;61.70;;;;;;5072674;28;20737;-70
2022/06/28 02:33:56;;;;;;;1.30;1.20;;;23.30;61.70;;;;;;5072734;28;20285;-71
2022/06/28 02:41:53;;;;;;;1.15;1.15;;;23.30;61.70;;;;;;5072703;28;20187;-71
2022/06/28 02:44:22;;;;;;;2.55;1.30;;;23.30;61.70;;;;;;5072796;28;20202;-71
2022/06/28 02:46:49;;;;;;;1.20;1.10;;;23.30;61.80;;;;;;5089623;28;20194;-70
2022/06/28 02:49:16;;;;;;;1.10;1.10;;;23.30;61.70;;;;;;5120050;22;20228;-71
2022/06/28 02:51:43;;;;;;;1.30;1.20;;;23.30;61.80;;;;;;5052159;28;20212;-72
2022/06/28 02:54:10;;;;;;;1.23;1.20;;;23.30;62.00;;;;;;5052440;28;20286;-72
2022/06/28 02:56:40;;;;;;;1.30;1.20;;;23.30;61.90;;;;;;5052440;28;20191;-72
2022/06/28 02:59:06;;;;;;;1.00;1.00;;;23.20;61.90;;;;;;5052153;28;20574;-72
2022/06/28 03:01:35;;;;;;;1.30;1.20;;;23.20;61.60;;;;;;5051581;28;20187;-72
2022/06/28 03:04:02;;;;;;;1.13;1.00;;;23.20;61.90;;;;;;5053386;28;20195;-72
2022/06/28 03:06:29;;;;;;;1.20;1.10;;;23.20;61.80;;;;;;5053068;28;20302;-71
2022/06/28 03:08:56;;;;;;;1.13;1.10;;;23.20;61.60;;;;;;5052331;28;20314;-72
2022/06/28 03:11:23;;;;;;;1.15;1.15;;;23.20;61.60;;;;;;5052177;28;20204;-71
2022/06/28 03:13:50;;;;;;;0.93;0.93;;;23.20;61.90;;;;;;5068896;28;20223;-72
2022/06/28 03:16:17;;;;;;;1.00;1.00;;;23.20;62.80;;;;;;5068762;28;20714;-72
2022/06/28 03:18:45;;;;;;;1.23;1.17;;;23.10;61.80;;;;;;5052017;28;20226;-72
2022/06/28 03:21:12;;;;;;;1.13;1.02;;;23.10;62.00;;;;;;5052014;28;20199;-72
2022/06/28 03:23:39;;;;;;;1.00;1.00;;;23.20;61.90;;;;;;5052104;28;20191;-72
2022/06/28 03:26:06;;;;;;;1.25;1.15;;;23.20;61.90;;;;;;5052054;28;20278;-71
2022/06/28 03:28:34;;;;;;;1.05;1.05;;;23.20;61.90;;;;;;5068707;28;20226;-72
2022/06/28 03:31:01;;;;;;;1.08;1.05;;;23.20;61.90;;;;;;5052303;28;20219;-72
2022/06/28 03:33:28;;;;;;;1.60;1.10;;;23.30;61.90;;;;;;5051922;28;20594;-71
2022/06/28 03:35:56;;;;;;;1.02;1.00;;;23.30;61.70;;;;;;5051944;28;20199;-72
2022/06/28 03:38:29;;;;;;;1.10;1.10;;;23.30;61.50;;;;;;5052069;28;20699;-72
2022/06/28 03:41:06;;;;;;;1.00;1.00;;;23.30;61.40;;;;;;5052252;28;20573;-72
2022/06/28 03:43:33;;;;;;;1.20;1.10;;;23.40;61.50;;;;;;5068928;28;20195;-72
2022/06/28 03:46:01;;;;;;;1.10;1.00;;;23.40;61.40;;;;;;5052066;28;20245;-72
2022/06/28 03:48:35;;;;;;;1.00;1.00;;;23.40;61.30;;;;;;5052493;28;20219;-72
2022/06/28 03:51:15;;;;;;;2.38;1.23;;;23.40;61.10;;;;;;5052930;28;20253;-72
2022/06/28 03:54:02;;;;;;;1.02;1.00;;;23.40;61.00;;;;;;5053201;28;20202;-72
2022/06/28 03:56:35;;;;;;;1.13;1.13;;;23.40;61.00;;;;;;5068911;28;20218;-72
2022/06/28 03:59:03;;;;;;;1.20;1.10;;;23.50;61.10;;;;;;5068406;28;20275;-72
2022/06/28 04:01:29;;;;;;;1.10;1.00;;;23.50;61.00;;;;;;5051704;28;20299;-72
2022/06/28 04:03:57;;;;;;;1.00;1.00;;;23.50;60.90;;;;;;5051725;28;20199;-72
2022/06/28 04:06:25;;;;;;;0.85;0.85;;;23.50;60.90;;;;;;5068342;28;20694;-72
2022/06/28 04:08:52;;;;;;;0.88;0.88;;;23.50;60.90;;;;;;5068356;28;20306;-72
2022/06/28 04:11:19;;;;;;;1.13;1.02;;;23.50;60.80;;;;;;5051589;28;20200;-72
2022/06/28 04:13:48;;;;;;;0.82;0.82;;;23.50;60.80;;;;;;5053278;28;20214;-72
2022/06/28 04:16:16;;;;;;;1.15;0.90;;;23.50;60.80;;;;;;5072260;28;20217;-72
2022/06/28 04:18:44;;;;;;;1.10;1.10;;;23.50;60.80;;;;;;5055336;28;20277;-71
2022/06/28 04:21:29;;;;;;;1.00;1.00;;;23.50;60.80;;;;;;5056276;28;20198;-72
2022/06/28 04:24:17;;;;;;;0.80;0.80;;;23.50;60.70;;;;;;5056171;28;20222;-72
2022/06/28 04:27:05;;;;;;;0.90;0.90;;;23.50;60.70;;;;;;5052310;28;20210;-72
2022/06/28 04:29:34;;;;;;;0.95;0.95;;;23.50;60.70;;;;;;5071754;28;20306;-72
2022/06/28 04:32:02;;;;;;;0.63;0.63;;;23.50;60.60;;;;;;5055111;28;20299;-72
2022/06/28 04:34:30;;;;;;;1.08;1.08;;;23.50;60.50;;;;;;5055031;28;20244;-73
2022/06/28 04:39:29;;;;;;;1.13;1.02;;;23.60;59.70;;;;;;5035359;28;20211;-72
2022/06/28 04:42:11;;;;;;;1.60;1.17;;;23.60;59.20;;;;;;5058510;28;20199;-72
2022/06/28 04:44:39;;;;;;;2.83;1.30;;;23.60;59.00;;;;;;5036984;28;20196;-71
2022/06/28 04:47:08;;;;;;;1.77;1.45;;;23.50;58.60;;;;;;5035719;28;20204;-72
2022/06/28 04:49:36;;;;;;;1.98;1.40;;;23.50;58.50;;;;;;5035306;28;20212;-72
2022/06/28 04:52:03;;;;;;;1.50;1.40;;;23.50;58.50;;;;;;5034878;28;20239;-72
2022/06/28 04:54:35;;;;;;;1.63;1.42;;;23.50;58.50;;;;;;5035435;28;20683;-72
2022/06/28 04:57:23;;;;;;;3.83;1.42;;;23.50;58.70;;;;;;5034402;28;20220;-72
2022/06/28 05:00:11;;;;;;;1.55;1.33;;;23.50;58.80;;;;;;5034489;28;20223;-72
2022/06/28 05:02:45;;;;;;;1.58;1.27;;;23.40;58.80;;;;;;5035464;28;20188;-72
2022/06/28 05:05:31;;;;;;;2.80;1.65;;;23.40;58.80;;;;;;5036055;28;20267;-72
2022/06/28 05:07:58;;;;;;;1.17;1.02;;;23.40;58.90;;;;;;5034308;28;20195;-72
2022/06/28 05:10:32;;;;;;;2.97;1.25;;;23.40;59.10;;;;;;5034927;28;20188;-72
2022/06/28 05:13:13;;;;;;;1.40;1.30;;;23.40;59.10;;;;;;5034638;28;20223;-72
2022/06/28 05:15:42;;;;;;;1.75;1.30;;;23.50;59.10;;;;;;5034430;28;20204;-72
2022/06/28 05:18:11;;;;;;;1.35;1.20;;;23.50;59.10;;;;;;5034353;28;20243;-72
2022/06/28 05:20:38;;;;;;;4.20;1.40;;;23.50;59.00;;;;;;5034272;28;20204;-72
2022/06/28 05:23:07;;;;;;;1.30;1.20;;;23.50;59.00;;;;;;5034622;28;20723;-72
2022/06/28 05:26:04;;;;;;;1.73;1.50;;;23.50;59.00;;;;;;5034466;28;20196;-72
2022/06/28 05:28:31;;;;;;;2.25;1.58;;;23.50;59.00;;;;;;5033923;28;20216;-72
2022/06/28 05:30:58;;;;;;;1.95;1.80;;;23.50;59.00;;;;;;5033934;28;20665;-72
2022/06/28 05:33:25;;;;;;;1.88;1.60;;;23.50;59.10;;;;;;5033956;28;20220;-72
2022/06/28 05:35:54;;;;;;;2.00;1.83;;;23.50;59.20;;;;;;5033985;28;20276;-72
2022/06/28 05:38:21;;;;;;;2.20;2.00;;;23.50;59.20;;;;;;5033792;28;20619;-72
2022/06/28 05:40:49;;;;;;;2.13;1.92;;;23.60;59.10;;;;;;5033767;28;20200;-72
2022/06/28 05:43:17;;;;;;;2.17;1.83;;;23.60;59.60;;;;;;5203443;22;20215;-71
2022/06/28 05:45:45;;;;;;;2.60;1.80;;;23.70;59.20;;;;;;5033492;28;20203;-72
2022/06/28 05:48:12;;;;;;;2.92;2.10;;;23.80;59.10;;;;;;5033540;28;20758;-73
2022/06/28 05:50:39;;;;;;;2.63;2.17;;;23.80;58.90;;;;;;5033546;28;20196;-72
2022/06/28 05:53:06;;;;;;;2.30;2.10;;;23.90;58.60;;;;;;5033366;28;20687;-73
2022/06/28 05:55:33;;;;;;;2.35;1.77;;;24.10;58.80;;;;;;5033996;28;20196;-73
2022/06/28 05:58:01;;;;;;;1.92;1.80;;;24.20;57.90;;;;;;5033474;28;20267;-73
2022/06/28 06:00:29;;;;;;;2.40;2.20;;;24.40;57.50;;;;;;5033362;28;20743;-73
2022/06/28 06:02:57;;;;;;;5.00;2.30;;;24.60;57.20;;;;;;5033447;28;20207;-73
2022/06/28 06:05:24;;;;;;;4.32;2.30;;;24.80;56.80;;;;;;5033439;28;20743;-73
2022/06/28 06:07:52;;;;;;;3.83;2.10;;;24.90;56.50;;;;;;5034180;28;20700;-73
2022/06/28 06:10:21;;;;;;;3.40;2.00;;;25.10;56.40;;;;;;5039609;28;20203;-73
2022/06/28 06:12:48;;;;;;;3.08;2.28;;;25.00;56.20;;;;;;5033448;28;20216;-73
2022/06/28 06:15:16;;;;;;;2.72;1.90;;;25.00;56.30;;;;;;5033537;28;20192;-73
2022/06/28 06:17:44;;;;;;;3.63;2.10;;;25.00;56.30;;;;;;5033345;28;20196;-73
2022/06/28 06:20:12;;;;;;;3.60;2.30;;;25.00;56.40;;;;;;5033161;28;20223;-73
2022/06/28 06:22:39;;;;;;;2.40;2.20;;;24.90;56.20;;;;;;5033195;28;20653;-72
2022/06/28 06:25:27;;;;;;;3.88;1.73;;;24.90;56.30;;;;;;5034411;28;20275;-73
2022/06/28 06:27:54;;;;;;;3.25;1.90;;;24.90;56.30;;;;;;5032870;28;20205;-73
2022/06/28 06:30:23;;;;;;;2.20;2.00;;;24.90;56.40;;;;;;5032868;28;20653;-72
2022/06/28 06:33:07;;;;;;;1.90;1.70;;;24.90;56.40;;;;;;5033560;28;20215;-73
2022/06/28 06:35:50;;;;;;;3.20;2.10;;;24.90;56.40;;;;;;5034735;28;20262;-73
2022/06/28 06:38:17;;;;;;;4.38;2.50;;;24.90;56.40;;;;;;5032767;28;20211;-73
2022/06/28 06:40:45;;;;;;;3.22;2.22;;;24.90;56.40;;;;;;5032749;28;20204;-73
2022/06/28 06:43:13;;;;;;;2.10;1.90;;;24.90;56.40;;;;;;5032912;28;20196;-73
2022/06/28 06:45:42;;;;;;;2.20;1.90;;;24.90;56.40;;;;;;5032681;28;20195;-73
2022/06/28 06:48:11;;;;;;;3.90;1.85;;;24.90;56.40;;;;;;5032782;28;20196;-73
2022/06/28 06:50:38;;;;;;;3.33;2.50;;;24.90;56.40;;;;;;5032587;28;20292;-73
2022/06/28 06:53:05;;;;;;;2.97;1.90;;;24.90;56.40;;;;;;5032550;28;20270;-73
2022/06/28 06:55:34;;;;;;;2.28;2.03;;;24.90;56.40;;;;;;5032651;28;20550;-73
2022/06/28 06:58:01;;;;;;;3.45;2.30;;;24.90;56.40;;;;;;5032734;28;20199;-73
2022/06/28 07:00:28;;;;;;;2.08;1.88;;;24.90;56.40;;;;;;5032465;28;20200;-73
2022/06/28 07:02:56;;;;;;;2.40;2.17;;;24.90;57.00;;;;;;5032378;28;20194;-73
2022/06/28 07:05:24;;;;;;;2.75;2.25;;;24.90;56.40;;;;;;5032459;28;20196;-73
2022/06/28 07:07:52;;;;;;;3.35;2.50;;;24.90;56.50;;;;;;5032137;28;20661;-73
2022/06/28 07:10:25;;;;;;;3.10;2.35;;;24.90;56.60;;;;;;5032424;28;20282;-73
2022/06/28 07:12:53;;;;;;;4.32;2.25;;;24.90;56.60;;;;;;5032163;28;20730;-73
2022/06/28 07:15:20;;;;;;;3.38;2.25;;;24.90;57.30;;;;;;5032333;28;20584;-73
2022/06/28 07:17:48;;;;;;;5.43;2.70;;;24.90;56.50;;;;;;5032505;28;20199;-73
2022/06/28 07:20:16;;;;;;;3.33;2.00;;;24.80;56.60;;;;;;5032326;28;20203;-73
2022/06/28 07:22:45;;;;;;;4.03;2.30;;;24.80;56.60;;;;;;5032462;28;20283;-73
2022/06/28 07:25:18;;;;;;;3.28;2.35;;;24.80;56.70;;;;;;5032485;28;20573;-73
2022/06/28 07:27:45;;;;;;;3.55;2.55;;;24.80;56.60;;;;;;5033482;28;20232;-73
2022/06/28 07:30:13;;;;;;;2.70;2.50;;;24.80;56.70;;;;;;5032279;28;20216;-73
2022/06/28 07:32:40;;;;;;;3.30;2.38;;;24.80;56.60;;;;;;5032158;28;20207;-73
2022/06/28 07:35:08;;;;;;;3.22;2.80;;;24.80;56.60;;;;;;5032225;28;20266;-73
2022/06/28 07:37:37;;;;;;;3.20;2.67;;;24.80;56.40;;;;;;5032195;28;20589;-73
2022/06/28 07:40:09;;;;;;;3.90;2.97;;;24.80;56.50;;;;;;5031978;28;20270;-73
2022/06/28 07:43:08;;;;;;;3.63;2.47;;;24.80;56.80;;;;;;5033490;28;20223;-73
2022/06/28 07:45:46;;;;;;;2.83;2.33;;;24.80;57.20;;;;;;5032065;28;20278;-73
2022/06/28 07:48:19;;;;;;;2.95;2.60;;;24.80;57.00;;;;;;5032929;28;20239;-73
2022/06/28 07:53:33;;;;;;;2.28;2.08;;;25.00;57.00;;;;;;5036016;28;20596;-74
2022/06/28 07:56:20;;;;;;;2.70;2.50;;;25.00;56.90;;;;;;5037366;28;20199;-73
2022/06/28 07:58:49;;;;;;;2.60;2.40;;;25.10;56.90;;;;;;5036350;28;20572;-73
2022/06/28 08:01:24;;;;;;;2.33;2.10;;;25.20;56.80;;;;;;5036187;28;20191;-73
2022/06/28 08:03:53;;;;;;;3.00;2.80;;;25.20;57.10;;;;;;5035950;28;20191;-73
2022/06/28 08:06:21;;;;;;;2.97;2.50;;;25.30;56.30;;;;;;5035823;28;20206;-73
2022/06/28 08:08:58;;;;;;;2.65;2.45;;;25.40;56.10;;;;;;5035648;28;20247;-73
2022/06/28 08:11:26;;;;;;;4.10;2.20;;;25.40;55.90;;;;;;5035653;28;20222;-73
2022/06/28 08:13:58;;;;;;;2.40;2.20;;;25.50;55.90;;;;;;5035527;28;20212;-73
2022/06/28 08:16:26;;;;;;;1.70;1.60;;;25.50;55.60;;;;;;5035754;28;20200;-73
2022/06/28 08:18:53;;;;;;;2.10;1.63;;;25.60;55.50;;;;;;5035442;28;20216;-73
2022/06/28 08:21:20;;;;;;;1.98;1.85;;;25.70;55.30;;;;;;5035594;28;20287;-73
2022/06/28 08:23:47;;;;;;;2.22;1.73;;;25.80;55.30;;;;;;5035460;28;20216;-73
2022/06/28 08:26:15;;;;;;;4.18;2.00;;;25.90;54.70;;;;;;5035501;28;20206;-73
2022/06/28 08:28:43;;;;;;;1.80;1.70;;;26.10;54.40;;;;;;5035190;28;20227;-73
2022/06/28 08:31:11;;;;;;;2.33;1.77;;;26.20;54.10;;;;;;5035132;28;20206;-73
2022/06/28 08:33:38;;;;;;;2.00;1.80;;;26.40;54.20;;;;;;5035055;28;20222;-73
2022/06/28 08:36:05;;;;;;;1.77;1.67;;;26.60;53.70;;;;;;5035005;28;20203;-73
2022/06/28 08:38:33;;;;;;;2.03;1.83;;;26.80;52.80;;;;;;5034948;28;20293;-75
2022/06/28 08:41:00;;;;;;;1.55;1.45;;;27.00;52.40;;;;;;5035174;28;20200;-73
2022/06/28 08:43:27;;;;;;;1.90;1.70;;;27.20;52.20;;;;;;5035077;28;20211;-74
2022/06/28 08:45:56;;;;;;;2.00;1.80;;;27.20;51.90;;;;;;5034912;28;20226;-73
2022/06/28 08:48:26;;;;;;;2.15;1.63;;;27.30;51.60;;;;;;5034677;28;20215;-73
2022/06/28 08:50:54;;;;;;;2.00;1.75;;;27.40;51.30;;;;;;5036029;28;20200;-73
2022/06/28 08:53:22;;;;;;;1.88;1.70;;;27.50;51.30;;;;;;5036552;28;20216;-73
2022/06/28 08:55:49;;;;;;;1.63;1.52;;;27.60;51.10;;;;;;5034885;28;20195;-73
2022/06/28 08:58:16;;;;;;;1.58;1.48;;;27.60;51.00;;;;;;5034789;28;20223;-73
2022/06/28 09:00:43;;;;;;;1.73;1.63;;;27.50;51.10;;;;;;5034461;28;20258;-73
2022/06/28 09:03:12;;;;;;;2.08;1.70;;;27.40;51.20;;;;;;5034809;28;20708;-74
2022/06/28 09:05:39;;;;;;;1.77;1.67;;;27.30;51.20;;;;;;5034831;28;20672;-73
2022/06/28 09:08:06;;;;;;;2.33;1.70;;;27.20;51.40;;;;;;5035661;28;20700;-73
2022/06/28 09:10:33;;;;;;;1.65;1.52;;;27.20;51.80;;;;;;5034630;28;20199;-73
2022/06/28 09:13:08;;;;;;;2.65;1.65;;;27.10;52.00;;;;;;5034580;28;20304;-73
2022/06/28 09:15:50;;;;;;;2.22;2.03;;;27.00;52.20;;;;;;5034476;28;20566;-73
2022/06/28 09:18:21;;;;;;;1.70;1.60;;;26.80;52.30;;;;;;5034371;28;20238;-73
2022/06/28 09:20:51;;;;;;;1.80;1.70;;;26.80;52.40;;;;;;5034348;28;20575;-73
2022/06/28 09:23:23;;;;;;;1.95;1.85;;;26.80;52.50;;;;;;5034333;28;20290;-73
2022/06/28 09:25:50;;;;;;;1.50;1.40;;;26.80;52.40;;;;;;5034243;28;20665;-73
2022/06/28 09:28:24;;;;;;;1.70;1.60;;;26.80;52.30;;;;;;5034051;28;20223;-73
2022/06/28 09:30:51;;;;;;;1.60;1.50;;;26.80;52.30;;;;;;5034190;28;20210;-73
2022/06/28 09:33:28;;;;;;;1.55;1.45;;;26.80;52.30;;;;;;5035636;28;20198;-73
2022/06/28 09:35:56;;;;;;;1.67;1.58;;;26.80;52.30;;;;;;5034163;28;20192;-73
2022/06/28 09:38:32;;;;;;;1.73;1.63;;;26.90;52.30;;;;;;5033941;28;20711;-73
2022/06/28 09:40:59;;;;;;;2.40;1.80;;;26.90;52.20;;;;;;5034538;28;20675;-73
2022/06/28 09:43:30;;;;;;;2.35;1.70;;;26.90;52.20;;;;;;5035144;28;20206;-74
2022/06/28 09:45:58;;;;;;;1.77;1.67;;;26.90;52.70;;;;;;5033953;28;20191;-73
2022/06/28 09:48:25;;;;;;;1.80;1.70;;;27.00;52.10;;;;;;5050676;28;20648;-73
2022/06/28 09:50:59;;;;;;;1.50;1.40;;;27.00;52.00;;;;;;5033866;28;20198;-73
2022/06/28 09:53:26;;;;;;;1.40;1.30;;;27.00;51.90;;;;;;5033781;28;20194;-73
2022/06/28 09:55:53;;;;;;;1.70;1.60;;;27.00;51.70;;;;;;5034348;28;20219;-73
2022/06/28 09:58:22;;;;;;;1.63;1.52;;;27.10;51.60;;;;;;5033726;28;20238;-73
2022/06/28 10:00:50;;;;;;;1.70;1.52;;;27.20;51.60;;;;;;5033658;28;20192;-73
2022/06/28 10:03:17;;;;;;;1.65;1.55;;;27.20;51.50;;;;;;5033558;28;20199;-73
2022/06/28 10:05:44;;;;;;;1.50;1.40;;;27.20;51.40;;;;;;5033546;28;20241;-73
2022/06/28 10:08:13;;;;;;;1.80;1.70;;;27.20;51.20;;;;;;5033395;28;20219;-73
2022/06/28 10:10:41;;;;;;;1.75;1.65;;;27.20;51.20;;;;;;5033195;28;20261;-74
2022/06/28 10:15:55;;;;;;;1.70;1.60;;;27.10;51.30;;;;;;5033425;28;20249;-73
2022/06/28 10:18:22;;;;;;;1.80;1.70;;;27.20;51.40;;;;;;5033230;28;20219;-73
2022/06/28 10:20:50;;;;;;;1.50;1.40;;;27.20;51.20;;;;;;5034378;28;20215;-73
2022/06/28 10:23:26;;;;;;;1.55;1.45;;;27.20;51.10;;;;;;5033094;28;20290;-73
2022/06/28 10:26:08;;;;;;;1.60;1.50;;;27.20;51.10;;;;;;5033112;28;20191;-73
2022/06/28 10:28:37;;;;;;;1.70;1.60;;;27.30;51.80;;;;;;5033154;28;20219;-73
2022/06/28 10:31:32;;;;;;;1.30;1.25;;;27.30;51.10;;;;;;5033012;28;20200;-73
2022/06/28 10:34:00;;;;;;;1.80;1.70;;;27.30;51.10;;;;;;5024582;28;20219;-73
2022/06/28 10:36:28;;;;;;;1.60;1.50;;;27.30;51.20;;;;;;5032957;28;20204;-73
2022/06/28 10:39:16;;;;;;;1.60;1.50;;;27.30;51.70;;;;;;5032758;28;20230;-73
2022/06/28 10:41:44;;;;;;;2.28;1.70;;;27.20;51.10;;;;;;5032718;28;20297;-73
2022/06/28 10:44:12;;;;;;;1.50;1.40;;;27.20;51.70;;;;;;5032790;28;20211;-73
2022/06/28 10:46:39;;;;;;;1.60;1.50;;;27.20;51.10;;;;;;5033146;28;20661;-73
2022/06/28 10:49:11;;;;;;;1.70;1.60;;;27.20;51.10;;;;;;5032593;28;20219;-73
2022/06/28 10:51:42;;;;;;;1.65;1.55;;;27.20;51.20;;;;;;5032719;28;20188;-73
2022/06/28 10:54:11;;;;;;;1.70;1.60;;;27.20;51.20;;;;;;5016496;28;20223;-73
2022/06/28 10:56:42;;;;;;;1.50;1.40;;;27.20;51.20;;;;;;5032743;28;20199;-73
2022/06/28 10:59:10;;;;;;;1.52;1.42;;;27.20;51.30;;;;;;5032499;28;20219;-73
2022/06/28 11:01:54;;;;;;;1.60;1.50;;;27.20;51.30;;;;;;5032607;28;20286;-73
2022/06/28 11:04:29;;;;;;;1.63;1.52;;;27.20;51.40;;;;;;5032783;28;20687;-73
2022/06/28 11:07:01;;;;;;;1.60;1.50;;;27.20;51.50;;;;;;5032705;28;20202;-73
2022/06/28 11:09:52;;;;;;;1.60;1.50;;;27.20;51.50;;;;;;5033701;28;20207;-73
2022/06/28 11:12:21;;;;;;;1.67;1.58;;;27.20;51.50;;;;;;5032523;28;20719;-73
2022/06/28 11:14:51;;;;;;;1.50;1.40;;;27.10;51.20;;;;;;5033641;28;20203;-73
2022/06/28 11:17:20;;;;;;;1.60;1.50;;;27.10;51.30;;;;;;5032396;28;20199;-73
2022/06/28 11:19:53;;;;;;;1.52;1.42;;;27.10;51.40;;;;;;5032371;28;20255;-73
2022/06/28 11:22:25;;;;;;;1.77;1.67;;;27.10;51.40;;;;;;5032090;28;20287;-73
2022/06/28 11:24:52;;;;;;;1.70;1.52;;;27.00;51.50;;;;;;5048719;28;20199;-73
2022/06/28 11:27:20;;;;;;;1.35;1.30;;;27.10;51.60;;;;;;5032281;28;20226;-73
2022/06/28 11:29:48;;;;;;;1.50;1.40;;;27.10;52.20;;;;;;5048701;28;20230;-73
2022/06/28 11:32:19;;;;;;;1.20;1.20;;;27.00;51.50;;;;;;5032332;28;20195;-73
2022/06/28 11:34:57;;;;;;;1.42;1.33;;;27.00;51.50;;;;;;5032205;28;20302;-73
2022/06/28 11:37:24;;;;;;;1.42;1.33;;;27.00;51.60;;;;;;5032220;28;20572;-73
2022/06/28 11:39:53;;;;;;;1.80;1.70;;;27.00;51.60;;;;;;5032077;28;20310;-73
2022/06/28 11:42:22;;;;;;;1.50;1.40;;;27.00;51.50;;;;;;5032352;28;20203;-74
2022/06/28 11:44:50;;;;;;;1.63;1.50;;;27.00;51.50;;;;;;5033477;28;20241;-73
2022/06/28 11:47:17;;;;;;;1.70;1.60;;;27.00;51.50;;;;;;5033215;28;20192;-73
2022/06/28 11:49:44;;;;;;;1.55;1.48;;;27.00;51.50;;;;;;5032001;28;20695;-73
2022/06/28 11:52:14;;;;;;;1.60;1.50;;;27.10;51.50;;;;;;5031923;28;20257;-73
2022/06/28 11:54:44;;;;;;;1.45;1.35;;;27.10;51.50;;;;;;5031949;28;20233;-73
2022/06/28 11:57:16;;;;;;;1.50;1.40;;;27.00;51.50;;;;;;5033466;28;20209;-73
2022/06/28 11:59:55;;;;;;;1.42;1.33;;;27.10;51.50;;;;;;5033163;28;20211;-74
2022/06/28 12:02:43;;;;;;;1.50;1.40;;;27.10;51.50;;;;;;5031951;28;20195;-73
2022/06/28 12:05:11;;;;;;;1.50;1.40;;;27.10;51.50;;;;;;5031976;28;20191;-73
2022/06/28 12:07:40;;;;;;;1.60;1.50;;;27.10;51.50;;;;;;5031889;28;20581;-73
2022/06/28 12:10:11;;;;;;;1.52;1.42;;;27.10;51.40;;;;;;5031754;28;20269;-73
2022/06/28 12:12:42;;;;;;;1.60;1.50;;;27.10;51.40;;;;;;5031841;28;20231;-73
2022/06/28 12:15:11;;;;;;;1.33;1.33;;;27.10;51.40;;;;;;5031766;28;20215;-73
2022/06/28 12:17:47;;;;;;;1.30;1.30;;;27.10;51.40;;;;;;5031833;28;20302;-73
2022/06/28 12:20:15;;;;;;;1.52;1.42;;;27.10;51.40;;;;;;5032875;28;20207;-73
2022/06/28 12:22:42;;;;;;;1.45;1.35;;;27.10;51.40;;;;;;5031663;28;20199;-73
2022/06/28 12:25:10;;;;;;;1.42;1.33;;;27.10;51.40;;;;;;5031692;28;20201;-73
2022/06/28 12:27:37;;;;;;;1.40;1.40;;;27.00;51.40;;;;;;5031685;28;20191;-73
2022/06/28 12:30:06;;;;;;;1.40;1.30;;;27.00;51.40;;;;;;5031722;28;20219;-73
2022/06/28 12:32:34;;;;;;;1.30;1.20;;;27.00;51.50;;;;;;5031626;28;20207;-73
2022/06/28 12:35:02;;;;;;;1.50;1.40;;;27.00;51.50;;;;;;5033874;28;20702;-73
2022/06/28 12:37:29;;;;;;;2.13;1.33;;;27.00;51.60;;;;;;5035335;28;20298;-73
2022/06/28 12:39:56;;;;;;;1.20;1.20;;;27.00;51.70;;;;;;5035282;28;20218;-73
2022/06/28 12:42:23;;;;;;;1.30;1.20;;;27.00;51.70;;;;;;5035111;28;20235;-74
2022/06/28 12:44:50;;;;;;;1.40;1.30;;;27.00;51.70;;;;;;5035199;28;20674;-74
2022/06/28 12:47:18;;;;;;;1.33;1.30;;;27.00;51.70;;;;;;5035052;28;20210;-74
2022/06/28 12:49:46;;;;;;;1.42;1.33;;;26.90;51.60;;;;;;5035052;28;20351;-73
2022/06/28 12:52:13;;;;;;;1.42;1.33;;;26.90;51.60;;;;;;5034940;28;20203;-73
2022/06/28 12:54:41;;;;;;;1.58;1.48;;;26.90;51.70;;;;;;5034889;28;20246;-73
2022/06/28 12:57:08;;;;;;;1.20;1.20;;;26.90;51.70;;;;;;5034912;28;20199;-73
2022/06/28 12:59:35;;;;;;;1.50;1.40;;;26.90;51.70;;;;;;5035238;28;20572;-74
2022/06/28 13:02:03;;;;;;;1.40;1.40;;;26.90;51.70;;;;;;5034760;28;20203;-73
2022/06/28 13:04:30;;;;;;;1.33;1.23;;;26.90;51.70;;;;;;5034744;28;20199;-73
2022/06/28 13:06:59;;;;;;;1.23;1.23;;;26.90;51.70;;;;;;5034876;28;20203;-73
2022/06/28 13:09:26;;;;;;;1.35;1.25;;;26.90;51.70;;;;;;5034550;28;20223;-73
2022/06/28 13:11:54;;;;;;;1.58;1.48;;;26.90;51.70;;;;;;5035085;28;20222;-74
2022/06/28 13:14:21;;;;;;;1.40;1.30;;;26.90;51.70;;;;;;5034542;28;20249;-73
2022/06/28 13:16:48;;;;;;;1.30;1.30;;;26.90;51.80;;;;;;5034859;28;20683;-73